Atkinson, Nebraska
Current Conditions -  °F | °C
As of 3:15 AM on Friday 24 Oct 2014 (Local Time) from KONL Reporting Station
Clear Clear  
Wind Chill: 54°   Ceiling: Unl
Heat Index: 54°   Visibility: 10mi
Dew Point: 53°   Wind: 7mph
Humidity: 95%   Direction: 230°SW
Pressure: 29.91"   Gusts: NA
Location:  42.53°N, 98.98°W
Report Text: KONL 240815Z AUTO 23006KT 10SM CLR 12/12 A2991 RMK AO2 T01230116
Loading
Personal Weather Stations






























Interactive Weather Map New forecast layout! Learn more

10-Day Weather Forecast

Advertisements
Track Severe Weather on mobile